createdAt,value
2017-08-16T00:01:49.124Z,83.30
2017-08-16T00:04:16.668Z,84.80
2017-08-16T00:06:45.013Z,80.90
2017-08-16T00:09:12.565Z,80.80
2017-08-16T00:11:40.105Z,81.10
2017-08-16T00:14:07.717Z,83.10
2017-08-16T00:16:35.252Z,85.40
2017-08-16T00:19:02.837Z,87.00
2017-08-16T00:21:30.413Z,88.60
2017-08-16T00:23:57.944Z,89.70
2017-08-16T00:26:25.488Z,90.20
2017-08-16T00:28:53.048Z,90.90
2017-08-16T00:31:20.781Z,91.90
2017-08-16T00:33:48.344Z,92.30
2017-08-16T00:36:15.937Z,92.60
2017-08-16T00:38:43.481Z,92.80
2017-08-16T00:41:11.093Z,92.80
2017-08-16T00:43:38.696Z,92.70
2017-08-16T00:46:06.253Z,92.50
2017-08-16T00:48:33.837Z,92.50
2017-08-16T00:51:01.454Z,92.40
2017-08-16T00:53:29.008Z,92.00
2017-08-16T00:55:56.589Z,91.70
2017-08-16T00:58:24.177Z,91.30
2017-08-16T01:00:51.725Z,91.20
2017-08-16T01:03:19.261Z,91.10
2017-08-16T01:05:46.857Z,90.80
2017-08-16T01:08:14.411Z,91.00
2017-08-16T01:10:41.962Z,90.80
2017-08-16T01:13:09.529Z,90.50
2017-08-16T01:15:37.108Z,89.80
2017-08-16T01:18:04.649Z,88.50
2017-08-16T01:20:32.261Z,88.80
2017-08-16T01:22:59.801Z,88.30
2017-08-16T01:25:27.337Z,88.30
2017-08-16T01:27:54.939Z,88.00
2017-08-16T01:30:22.473Z,88.20
2017-08-16T01:32:50.653Z,87.70
2017-08-16T01:35:18.986Z,88.20
2017-08-16T01:37:46.534Z,88.20
2017-08-16T01:40:14.073Z,88.30
2017-08-16T01:42:41.677Z,88.70
2017-08-16T01:45:09.219Z,88.10
2017-08-16T01:47:36.764Z,88.40
2017-08-16T01:50:04.334Z,88.60
2017-08-16T01:52:31.869Z,86.60
2017-08-16T01:54:59.412Z,87.70
2017-08-16T01:57:26.985Z,88.00
2017-08-16T01:59:54.532Z,88.20
2017-08-16T02:02:22.897Z,90.00
2017-08-16T02:04:50.513Z,90.00
2017-08-16T02:07:18.044Z,90.30
2017-08-16T02:09:45.650Z,90.20
2017-08-16T02:12:13.242Z,90.00
2017-08-16T02:14:40.856Z,90.00
2017-08-16T02:17:08.392Z,89.50
2017-08-16T02:19:36.004Z,89.30
2017-08-16T02:22:03.621Z,88.20
2017-08-16T02:24:31.174Z,87.50
2017-08-16T02:26:58.797Z,87.00
2017-08-16T02:29:26.349Z,87.30
2017-08-16T02:31:53.886Z,88.30
2017-08-16T02:34:21.880Z,88.00
2017-08-16T02:36:49.485Z,88.20
2017-08-16T02:39:17.023Z,87.50
2017-08-16T02:41:44.601Z,88.60
2017-08-16T02:44:12.149Z,88.80
2017-08-16T02:46:40.512Z,88.10
2017-08-16T02:49:08.141Z,88.10
2017-08-16T02:51:35.748Z,88.30
2017-08-16T02:54:03.389Z,88.50
2017-08-16T02:56:31.023Z,89.10
2017-08-16T02:58:58.578Z,88.90
2017-08-16T03:01:26.217Z,89.50
2017-08-16T03:03:53.841Z,90.20
2017-08-16T03:06:21.384Z,90.80
2017-08-16T03:08:48.934Z,90.80
2017-08-16T03:11:16.533Z,91.00
2017-08-16T03:13:44.085Z,90.50
2017-08-16T03:16:11.624Z,90.60
2017-08-16T03:18:39.216Z,90.40
2017-08-16T03:21:06.773Z,90.50
2017-08-16T03:23:35.088Z,90.80
2017-08-16T03:26:02.692Z,90.50
2017-08-16T03:28:30.313Z,90.30
2017-08-16T03:30:57.862Z,90.30
2017-08-16T03:33:25.476Z,90.00
2017-08-16T03:35:53.285Z,90.00
2017-08-16T03:38:21.053Z,90.00
2017-08-16T03:40:48.612Z,89.90
2017-08-16T03:43:16.253Z,89.30
2017-08-16T03:45:43.809Z,88.30
2017-08-16T03:48:12.164Z,88.40
2017-08-16T03:50:39.705Z,88.40
2017-08-16T03:53:07.253Z,88.20
2017-08-16T03:55:34.862Z,87.60
2017-08-16T03:58:03.235Z,87.60
2017-08-16T04:00:31.557Z,86.80
2017-08-16T04:02:59.125Z,87.00
2017-08-16T04:05:26.656Z,86.80
2017-08-16T04:07:54.269Z,87.10
2017-08-16T04:10:21.907Z,87.00
2017-08-16T04:12:49.515Z,87.20
2017-08-16T04:15:17.157Z,87.50
2017-08-16T04:17:44.761Z,87.50
2017-08-16T04:20:13.081Z,87.20
2017-08-16T04:22:40.857Z,87.20
2017-08-16T04:25:08.554Z,87.20
2017-08-16T04:27:36.168Z,87.40
2017-08-16T04:30:03.749Z,87.00
2017-08-16T04:32:31.321Z,87.30
2017-08-16T04:34:58.861Z,87.40
2017-08-16T04:37:27.084Z,87.70
2017-08-16T04:39:54.849Z,87.40
2017-08-16T04:42:22.385Z,87.40
2017-08-16T04:44:49.924Z,87.40
2017-08-16T04:47:17.560Z,87.20
2017-08-16T04:49:45.097Z,87.40
2017-08-16T04:52:12.874Z,87.70
2017-08-16T04:54:40.452Z,87.20
2017-08-16T04:57:08.032Z,87.00
2017-08-16T04:59:35.581Z,86.20
2017-08-16T05:02:03.164Z,86.10
2017-08-16T05:04:30.944Z,86.00
2017-08-16T05:06:58.524Z,86.30
2017-08-16T05:09:26.149Z,87.60
2017-08-16T05:11:53.964Z,86.70
2017-08-16T05:14:21.501Z,86.70
2017-08-16T05:16:49.875Z,87.30
2017-08-16T05:19:18.437Z,87.50
2017-08-16T05:21:46.228Z,87.40
2017-08-16T05:24:13.845Z,87.20
2017-08-16T05:26:41.380Z,87.10
2017-08-16T05:29:09.005Z,86.90
2017-08-16T05:31:37.156Z,86.60
2017-08-16T05:34:04.692Z,85.90
2017-08-16T05:36:32.310Z,85.50
2017-08-16T05:39:01.241Z,85.00
2017-08-16T05:41:28.776Z,85.00
2017-08-16T05:43:56.385Z,84.80
2017-08-16T05:46:24.029Z,83.80
2017-08-16T05:48:51.560Z,83.70
2017-08-16T05:51:19.109Z,83.20
2017-08-16T05:53:46.673Z,82.90
2017-08-16T05:56:14.209Z,83.70
2017-08-16T05:58:41.752Z,83.50
2017-08-16T06:01:09.315Z,83.40
2017-08-16T06:03:36.848Z,83.40
2017-08-16T06:06:04.393Z,82.60
2017-08-16T06:08:31.981Z,83.50
2017-08-16T06:10:59.526Z,82.70
2017-08-16T06:13:27.060Z,83.30
2017-08-16T06:15:54.648Z,83.00
2017-08-16T06:18:22.192Z,82.60
2017-08-16T06:20:49.724Z,82.30
2017-08-16T06:23:17.297Z,80.90
2017-08-16T06:25:44.836Z,80.90
2017-08-16T06:28:13.162Z,81.50
2017-08-16T06:30:40.763Z,81.40
2017-08-16T06:33:08.305Z,81.00
2017-08-16T06:35:35.841Z,82.10
2017-08-16T06:38:03.429Z,81.60
2017-08-16T06:40:31.233Z,81.40
2017-08-16T06:42:58.774Z,81.10
2017-08-16T06:45:26.353Z,80.80
2017-08-16T06:47:53.901Z,80.10
2017-08-16T06:50:21.437Z,79.40
2017-08-16T06:52:49.028Z,78.00
2017-08-16T06:55:17.333Z,73.10
2017-08-16T06:57:44.877Z,73.00
2017-08-16T07:00:12.570Z,72.50
2017-08-16T07:02:40.114Z,71.20
2017-08-16T07:05:07.661Z,71.90
2017-08-16T07:07:35.235Z,70.80
2017-08-16T07:10:02.773Z,69.40
2017-08-16T07:12:30.313Z,65.40
2017-08-16T07:14:57.904Z,63.20
2017-08-16T07:17:25.436Z,63.90
2017-08-16T07:19:54.818Z,59.20
2017-08-16T07:22:22.376Z,59.20
2017-08-16T07:24:49.907Z,60.10
2017-08-16T07:27:17.440Z,61.80
2017-08-16T07:29:45.017Z,63.30
2017-08-16T07:32:12.555Z,66.40
2017-08-16T07:34:40.092Z,66.80
2017-08-16T07:37:08.449Z,67.00
2017-08-16T07:39:35.990Z,67.00
2017-08-16T07:42:03.856Z,64.40
2017-08-16T07:44:31.457Z,65.00
2017-08-16T07:46:59.760Z,62.40
2017-08-16T07:49:27.304Z,62.40
2017-08-16T07:51:55.633Z,62.30
2017-08-16T07:54:23.174Z,62.30
2017-08-16T07:56:50.709Z,60.80
2017-08-16T07:59:18.302Z,61.50
2017-08-16T08:01:45.848Z,60.20
2017-08-16T08:04:13.390Z,60.30
2017-08-16T08:06:40.956Z,60.90
2017-08-16T08:09:08.493Z,59.70
2017-08-16T08:11:36.804Z,62.30
2017-08-16T08:14:04.381Z,62.30
2017-08-16T08:16:31.924Z,61.20
2017-08-16T08:18:59.461Z,59.80
2017-08-16T08:21:27.229Z,55.30
2017-08-16T08:23:54.764Z,51.60
2017-08-16T08:26:22.297Z,52.70
2017-08-16T08:28:50.720Z,52.20
2017-08-16T08:31:18.260Z,51.60
2017-08-16T08:33:45.806Z,46.70
2017-08-16T08:36:13.405Z,45.40
2017-08-16T08:38:40.945Z,47.80
2017-08-16T08:41:08.477Z,48.70
2017-08-16T08:43:36.240Z,51.60
2017-08-16T08:46:03.777Z,53.10
2017-08-16T08:48:31.345Z,47.20
2017-08-16T08:50:58.936Z,49.30
2017-08-16T08:53:26.477Z,50.40
2017-08-16T08:55:54.009Z,45.60
2017-08-16T08:58:21.589Z,43.60
2017-08-16T09:00:49.148Z,38.50
2017-08-16T09:03:16.680Z,36.60
2017-08-16T09:05:44.283Z,31.70
2017-08-16T09:08:11.848Z,33.50
2017-08-16T09:10:39.401Z,32.60
2017-08-16T09:13:06.960Z,33.60
2017-08-16T09:15:34.500Z,33.80
2017-08-16T09:18:02.077Z,31.60
2017-08-16T09:20:29.648Z,34.30
2017-08-16T09:22:57.188Z,34.40
2017-08-16T09:25:24.724Z,34.70
2017-08-16T09:27:52.308Z,37.20
2017-08-16T09:30:19.892Z,36.90
2017-08-16T09:32:47.445Z,37.90
2017-08-16T09:35:15.001Z,38.70
2017-08-16T09:37:42.536Z,38.10
2017-08-16T09:40:10.081Z,35.10
2017-08-16T09:42:37.655Z,35.90
2017-08-16T09:45:05.817Z,34.60
2017-08-16T09:47:33.364Z,36.20
2017-08-16T09:50:00.972Z,39.30
2017-08-16T09:52:28.593Z,42.90
2017-08-16T09:54:56.142Z,43.30
2017-08-16T09:57:23.754Z,41.20
2017-08-16T09:59:51.360Z,41.40
2017-08-16T10:02:18.987Z,42.70
2017-08-16T10:04:46.608Z,38.00
2017-08-16T10:07:14.635Z,38.10
2017-08-16T10:09:42.188Z,39.60
2017-08-16T10:12:09.833Z,43.90
2017-08-16T10:14:37.435Z,45.80
2017-08-16T10:17:05.077Z,43.50
2017-08-16T10:19:33.312Z,44.50
2017-08-16T10:22:06.018Z,40.10
2017-08-16T10:24:34.533Z,41.10
2017-08-16T10:27:02.336Z,42.80
2017-08-16T10:29:31.440Z,40.70
2017-08-16T10:31:59.249Z,43.20
2017-08-16T10:34:26.934Z,44.50
2017-08-16T10:36:54.577Z,44.70
2017-08-16T10:39:39.287Z,45.80
2017-08-16T10:42:06.909Z,46.60
2017-08-16T10:44:34.549Z,45.90
2017-08-16T10:47:03.373Z,46.20
2017-08-16T10:49:31.024Z,46.10
2017-08-16T10:52:00.386Z,46.20
2017-08-16T10:54:28.052Z,46.20
2017-08-16T10:56:55.632Z,47.70
2017-08-16T10:59:23.253Z,47.50
2017-08-16T11:01:51.422Z,47.80
2017-08-16T11:04:19.072Z,47.70
2017-08-16T11:06:46.847Z,47.70
2017-08-16T11:09:14.436Z,48.30
2017-08-16T11:11:42.041Z,47.90
2017-08-16T11:14:09.806Z,49.50
2017-08-16T11:16:37.418Z,46.80
2017-08-16T11:19:04.999Z,49.10
2017-08-16T11:21:32.645Z,46.60
2017-08-16T11:24:00.270Z,48.10
2017-08-16T11:26:28.053Z,46.70
2017-08-16T11:28:55.855Z,47.30
2017-08-16T11:31:23.488Z,46.30
2017-08-16T11:33:51.077Z,46.90
2017-08-16T11:36:19.401Z,46.80
2017-08-16T11:38:47.045Z,46.70
2017-08-16T11:41:14.663Z,46.10
2017-08-16T11:43:42.289Z,46.30
2017-08-16T11:46:09.903Z,46.60
2017-08-16T11:48:38.665Z,48.40
2017-08-16T11:51:07.070Z,48.30
2017-08-16T11:53:34.684Z,47.20
2017-08-16T11:56:02.319Z,49.50
2017-08-16T11:58:29.865Z,47.50
2017-08-16T12:00:57.437Z,46.80
2017-08-16T12:03:25.785Z,47.50
2017-08-16T12:05:53.398Z,47.50
2017-08-16T12:08:21.001Z,48.60
2017-08-16T12:10:48.533Z,48.90
2017-08-16T12:13:16.077Z,49.20
2017-08-16T12:15:43.763Z,50.20
2017-08-16T12:18:11.301Z,48.70
2017-08-16T12:20:38.841Z,49.10
2017-08-16T12:23:06.411Z,49.60
2017-08-16T12:25:33.944Z,48.90
2017-08-16T12:28:01.481Z,50.50
2017-08-16T12:30:29.040Z,49.20
2017-08-16T12:32:56.572Z,48.40
2017-08-16T12:35:24.114Z,48.70
2017-08-16T12:37:51.716Z,49.40
2017-08-16T12:40:19.270Z,49.80
2017-08-16T12:42:46.801Z,50.20
2017-08-16T12:45:14.672Z,50.30
2017-08-16T12:47:42.212Z,50.30
2017-08-16T12:50:09.754Z,49.60
2017-08-16T12:52:40.617Z,50.50
2017-08-16T12:55:08.152Z,49.00
2017-08-16T12:57:35.689Z,49.00
2017-08-16T13:00:03.309Z,48.80
2017-08-16T13:02:30.888Z,47.60
2017-08-16T13:04:58.441Z,47.00
2017-08-16T13:07:26.000Z,46.90
2017-08-16T13:09:53.529Z,48.10
2017-08-16T13:12:21.077Z,48.10
2017-08-16T13:14:49.480Z,47.10
2017-08-16T13:17:17.020Z,47.00
2017-08-16T13:19:44.560Z,47.10
2017-08-16T13:22:12.157Z,48.50
2017-08-16T13:24:39.697Z,48.50
2017-08-16T13:27:07.265Z,48.50
2017-08-16T13:29:34.865Z,48.40
2017-08-16T13:32:02.425Z,47.10
2017-08-16T13:34:30.029Z,47.00
2017-08-16T13:36:58.371Z,47.00
2017-08-16T13:39:25.912Z,46.90
2017-08-16T13:41:53.453Z,47.10
2017-08-16T13:44:21.046Z,48.00
2017-08-16T13:46:48.591Z,47.40
2017-08-16T13:49:16.189Z,47.10
2017-08-16T13:51:46.750Z,46.50
2017-08-16T13:54:14.401Z,46.40
2017-08-16T13:56:42.032Z,48.90
2017-08-16T13:59:09.886Z,47.60
2017-08-16T14:01:37.679Z,47.50
2017-08-16T14:04:06.300Z,49.50
2017-08-16T14:06:39.033Z,48.00
2017-08-16T14:11:54.794Z,46.60
2017-08-16T14:14:22.435Z,46.20
2017-08-16T14:16:52.976Z,48.00
2017-08-16T14:19:20.656Z,48.00
2017-08-16T14:21:53.005Z,47.10
2017-08-16T14:24:20.636Z,45.80
2017-08-16T14:26:50.246Z,46.60
2017-08-16T14:29:18.772Z,46.10
2017-08-16T14:31:46.394Z,45.80
2017-08-16T14:34:14.766Z,47.80
2017-08-16T14:36:42.357Z,47.10
2017-08-16T14:39:10.273Z,47.50
2017-08-16T14:41:37.909Z,46.80
2017-08-16T14:44:05.481Z,45.00
2017-08-16T14:46:33.016Z,45.70
2017-08-16T14:49:00.625Z,45.80
2017-08-16T14:51:28.465Z,46.80
2017-08-16T14:53:56.437Z,45.50
2017-08-16T14:56:24.010Z,46.20
2017-08-16T14:58:51.544Z,48.30
2017-08-16T15:01:19.096Z,49.10
2017-08-16T15:03:46.661Z,48.20
2017-08-16T15:06:14.201Z,48.30
2017-08-16T15:08:41.757Z,48.40
2017-08-16T15:11:09.596Z,48.40
2017-08-16T15:13:37.189Z,47.70
2017-08-16T15:16:04.744Z,48.90
2017-08-16T15:18:32.304Z,49.70
2017-08-16T15:20:59.845Z,51.10
2017-08-16T15:23:27.384Z,48.60
2017-08-16T15:25:54.977Z,48.70
2017-08-16T15:28:22.526Z,47.90
2017-08-16T15:30:50.837Z,49.00
2017-08-16T15:33:18.463Z,48.90
2017-08-16T15:35:46.001Z,50.10
2017-08-16T15:38:13.541Z,49.00
2017-08-16T15:40:41.113Z,49.70
2017-08-16T15:43:08.648Z,49.70
2017-08-16T15:45:36.197Z,49.30
2017-08-16T15:48:03.768Z,49.00
2017-08-16T15:50:31.309Z,49.50
2017-08-16T15:52:58.904Z,50.10
2017-08-16T15:55:26.682Z,49.70
2017-08-16T15:57:54.520Z,50.10
2017-08-16T16:00:22.065Z,50.10
2017-08-16T16:02:49.642Z,50.00
2017-08-16T16:05:17.190Z,51.10
2017-08-16T16:07:44.732Z,51.60
2017-08-16T16:10:12.292Z,51.80
2017-08-16T16:12:39.838Z,52.80
2017-08-16T16:15:08.185Z,52.30
2017-08-16T16:17:35.774Z,51.60
2017-08-16T16:20:03.341Z,51.40
2017-08-16T16:22:30.916Z,52.10
2017-08-16T16:24:58.501Z,52.00
2017-08-16T16:27:26.058Z,52.20
2017-08-16T16:29:53.646Z,51.40
2017-08-16T16:32:21.256Z,51.30
2017-08-16T16:34:48.789Z,50.90
2017-08-16T16:37:16.395Z,51.50
2017-08-16T16:39:43.981Z,51.40
2017-08-16T16:42:11.523Z,51.60
2017-08-16T16:44:39.060Z,51.80
2017-08-16T16:47:06.625Z,51.80
2017-08-16T16:49:34.165Z,52.00
2017-08-16T16:52:02.480Z,52.80
2017-08-16T16:54:30.049Z,52.70
2017-08-16T16:56:58.297Z,53.50
2017-08-16T16:59:25.837Z,53.70
2017-08-16T17:01:54.188Z,53.00
2017-08-16T17:04:21.736Z,52.90
2017-08-16T17:06:49.272Z,53.60
2017-08-16T17:09:16.845Z,53.90
2017-08-16T17:11:44.381Z,53.60
2017-08-16T17:14:11.920Z,54.20
2017-08-16T17:16:39.493Z,54.70
2017-08-16T17:19:07.033Z,54.90
2017-08-16T17:21:35.421Z,55.30
2017-08-16T17:24:03.796Z,55.10
2017-08-16T17:26:31.345Z,55.00
2017-08-16T17:28:58.927Z,55.50
2017-08-16T17:31:26.494Z,55.50
2017-08-16T17:33:54.037Z,56.00
2017-08-16T17:36:21.577Z,56.50
2017-08-16T17:38:49.208Z,56.50
2017-08-16T17:41:16.755Z,56.60
2017-08-16T17:43:44.288Z,56.70
2017-08-16T17:46:11.888Z,57.10
2017-08-16T17:48:39.449Z,57.50
2017-08-16T17:51:06.985Z,57.50
2017-08-16T17:53:34.550Z,57.80
2017-08-16T17:56:02.089Z,58.20
2017-08-16T17:58:29.625Z,58.90
2017-08-16T18:00:58.060Z,59.40
2017-08-16T18:03:25.667Z,59.60
2017-08-16T18:05:53.206Z,60.10
2017-08-16T18:08:20.857Z,60.90
2017-08-16T18:10:48.401Z,60.60
2017-08-16T18:13:15.937Z,60.90
2017-08-16T18:15:43.500Z,60.70
2017-08-16T18:18:11.036Z,60.30
2017-08-16T18:20:38.582Z,61.80
2017-08-16T18:23:06.144Z,61.60
2017-08-16T18:25:33.676Z,61.60
2017-08-16T18:28:01.214Z,61.80
2017-08-16T18:30:28.796Z,61.90
2017-08-16T18:32:56.328Z,62.20
2017-08-16T18:35:23.861Z,62.70
2017-08-16T18:37:51.436Z,63.10
2017-08-16T18:40:18.973Z,63.00
2017-08-16T18:42:47.276Z,62.80
2017-08-16T18:45:14.865Z,62.80
2017-08-16T18:47:42.435Z,63.30
2017-08-16T18:50:09.969Z,63.60
2017-08-16T18:52:37.569Z,63.60
2017-08-16T18:55:05.107Z,64.00
2017-08-16T18:57:32.646Z,64.00
2017-08-16T19:00:00.645Z,64.20
2017-08-16T19:02:28.229Z,64.20
2017-08-16T19:04:56.527Z,65.60
2017-08-16T19:07:24.090Z,65.20
2017-08-16T19:09:51.629Z,64.90
2017-08-16T19:12:19.170Z,65.40
2017-08-16T19:14:46.821Z,65.20
2017-08-16T19:17:14.358Z,65.50
2017-08-16T19:19:41.932Z,65.60
2017-08-16T19:22:09.497Z,65.90
2017-08-16T19:24:37.033Z,66.20
2017-08-16T19:27:04.568Z,66.30
2017-08-16T19:29:32.138Z,66.40
2017-08-16T19:31:59.709Z,66.40
2017-08-16T19:34:27.245Z,66.70
2017-08-16T19:36:54.865Z,67.20
2017-08-16T19:39:22.414Z,67.20
2017-08-16T19:41:49.964Z,67.00
2017-08-16T19:44:17.543Z,67.00
2017-08-16T19:46:45.230Z,67.30
2017-08-16T19:49:13.565Z,67.90
2017-08-16T19:51:41.268Z,67.50
2017-08-16T19:54:08.806Z,67.60
2017-08-16T19:56:36.345Z,67.80
2017-08-16T19:59:04.270Z,68.00
2017-08-16T20:01:32.356Z,68.40
2017-08-16T20:03:59.901Z,68.40
2017-08-16T20:06:28.241Z,69.30
2017-08-16T20:08:55.789Z,69.10
2017-08-16T20:11:23.338Z,69.20
2017-08-16T20:13:50.965Z,69.10
2017-08-16T20:16:19.274Z,69.00
2017-08-16T20:18:46.821Z,68.80
2017-08-16T20:21:14.424Z,68.90
2017-08-16T20:23:41.969Z,68.90
2017-08-16T20:26:09.514Z,68.90
2017-08-16T20:28:37.081Z,69.10
2017-08-16T20:31:04.621Z,69.70
2017-08-16T20:33:32.173Z,69.30
2017-08-16T20:35:59.740Z,69.60
2017-08-16T20:38:27.289Z,69.70
2017-08-16T20:40:54.837Z,69.80
2017-08-16T20:43:22.428Z,69.70
2017-08-16T20:45:49.977Z,69.60
2017-08-16T20:48:17.529Z,69.70
2017-08-16T20:50:45.869Z,70.30
2017-08-16T20:53:13.416Z,70.30
2017-08-16T20:55:40.960Z,70.20
2017-08-16T20:58:08.586Z,70.30
2017-08-16T21:00:36.136Z,70.40
2017-08-16T21:03:04.192Z,70.40
2017-08-16T21:05:31.809Z,70.40
2017-08-16T21:07:59.360Z,70.50
2017-08-16T21:10:27.203Z,70.50
2017-08-16T21:12:54.794Z,70.90
2017-08-16T21:15:22.342Z,71.10
2017-08-16T21:17:49.889Z,71.30
2017-08-16T21:20:17.448Z,71.50
2017-08-16T21:22:44.994Z,71.60
2017-08-16T21:25:13.338Z,72.10
2017-08-16T21:27:40.937Z,72.00
2017-08-16T21:30:08.506Z,72.50
2017-08-16T21:32:36.065Z,72.00
2017-08-16T21:35:03.657Z,72.00
2017-08-16T21:37:31.210Z,71.80
2017-08-16T21:39:58.785Z,72.10
2017-08-16T21:42:26.372Z,72.40
2017-08-16T21:44:53.944Z,72.20
2017-08-16T21:47:21.525Z,72.00
2017-08-16T21:49:49.165Z,72.10
2017-08-16T21:52:17.490Z,71.20
2017-08-16T21:54:45.033Z,71.50
2017-08-16T21:57:12.668Z,71.30
2017-08-16T21:59:40.242Z,71.30
2017-08-16T22:02:08.553Z,72.00
2017-08-16T22:04:36.605Z,72.00
2017-08-16T22:07:04.169Z,72.10
2017-08-16T22:09:31.717Z,71.80
2017-08-16T22:11:59.322Z,72.10
2017-08-16T22:14:26.877Z,72.80
2017-08-16T22:16:54.437Z,72.70
2017-08-16T22:19:22.806Z,72.80
2017-08-16T22:21:50.369Z,72.80
2017-08-16T22:24:17.919Z,73.00
2017-08-16T22:26:45.502Z,72.80
2017-08-16T22:29:13.054Z,72.50
2017-08-16T22:31:40.609Z,72.10
2017-08-16T22:34:08.225Z,72.10
2017-08-16T22:36:35.793Z,71.90
2017-08-16T22:39:04.163Z,72.30
2017-08-16T22:41:31.767Z,72.20
2017-08-16T22:43:59.326Z,72.60
2017-08-16T22:46:26.864Z,72.30
2017-08-16T22:48:54.474Z,72.30
2017-08-16T22:51:22.030Z,72.30
2017-08-16T22:53:49.576Z,72.20
2017-08-16T22:56:17.165Z,72.50
2017-08-16T22:58:44.701Z,72.10
2017-08-16T23:01:12.245Z,72.40
2017-08-16T23:03:39.821Z,72.60
2017-08-16T23:06:07.948Z,72.40
2017-08-16T23:08:35.641Z,72.20
2017-08-16T23:11:03.257Z,72.20
2017-08-16T23:13:31.578Z,72.50
2017-08-16T23:15:59.125Z,72.40
2017-08-16T23:18:26.717Z,72.50
2017-08-16T23:20:54.293Z,72.40
2017-08-16T23:23:21.837Z,72.50
2017-08-16T23:25:49.434Z,72.90
2017-08-16T23:28:16.997Z,72.90
2017-08-16T23:30:45.322Z,73.00
2017-08-16T23:33:12.909Z,72.70
2017-08-16T23:35:40.449Z,72.40
2017-08-16T23:38:08.019Z,72.30
2017-08-16T23:40:35.817Z,73.10
2017-08-16T23:43:04.135Z,72.60
2017-08-16T23:45:31.681Z,72.50
2017-08-16T23:47:59.267Z,72.70
2017-08-16T23:50:26.813Z,73.10
2017-08-16T23:52:54.361Z,72.50
2017-08-16T23:55:21.951Z,72.90
2017-08-16T23:57:49.511Z,72.90
